Time;durP1;ratioP1;P1;durP2;ratioP2;P2;SDS_P1;SDS_P2;PMS_P1;PMS_P2;Temp;Humidity;BMP_temperature;BMP_pressure;BME280_temperature;BME280_humidity;BME280_pressure;Samples;Min_cycle;Max_cycle;Signal;HPM_P1;HPM_P2
2022/06/01 00:00:27;;;;;;;12.55;3.97;;;19.50;77.50;;;;;;5040274;28;20132;-62
2022/06/01 00:02:53;;;;;;;10.05;3.88;;;19.40;76.80;;;;;;5024420;28;20389;-62
2022/06/01 00:05:19;;;;;;;13.38;3.60;;;19.40;76.80;;;;;;5042746;28;20029;-63
2022/06/01 00:07:45;;;;;;;13.60;3.53;;;19.40;76.80;;;;;;5041190;28;20017;-63
2022/06/01 00:10:11;;;;;;;11.13;3.97;;;19.40;76.80;;;;;;5039625;28;20413;-63
2022/06/01 00:12:37;;;;;;;15.68;4.28;;;19.40;76.80;;;;;;5042977;28;20033;-62
2022/06/01 00:15:03;;;;;;;7.65;3.35;;;19.40;76.80;;;;;;5041909;28;20034;-63
2022/06/01 00:17:29;;;;;;;15.05;3.85;;;19.40;76.90;;;;;;5027147;28;20044;-62
2022/06/01 00:19:54;;;;;;;11.85;3.67;;;19.30;76.80;;;;;;5041903;28;20021;-63
2022/06/01 00:22:20;;;;;;;8.88;3.38;;;19.30;76.80;;;;;;5044899;28;20040;-63
2022/06/01 00:24:46;;;;;;;11.25;3.38;;;19.30;76.70;;;;;;5024562;28;20029;-63
2022/06/01 00:27:12;;;;;;;16.08;4.32;;;19.40;76.70;;;;;;5043602;28;20044;-62
2022/06/01 00:29:37;;;;;;;12.32;4.68;;;19.30;76.50;;;;;;5023639;28;20477;-63
2022/06/01 00:32:04;;;;;;;14.57;4.35;;;19.30;76.70;;;;;;5026843;28;20033;-63
2022/06/01 00:34:29;;;;;;;13.70;3.90;;;19.30;76.60;;;;;;5026082;28;20381;-62
2022/06/01 00:36:55;;;;;;;9.07;3.95;;;19.30;76.60;;;;;;5027257;28;21677;-62
2022/06/01 00:39:20;;;;;;;15.50;3.63;;;19.20;76.80;;;;;;5043996;28;20484;-63
2022/06/01 00:41:46;;;;;;;9.50;3.35;;;19.30;77.00;;;;;;5027720;28;20028;-63
2022/06/01 00:44:12;;;;;;;11.60;3.35;;;19.20;76.90;;;;;;5046082;28;20033;-62
2022/06/01 00:46:37;;;;;;;9.85;3.58;;;19.20;76.90;;;;;;5042836;28;20037;-63
2022/06/01 00:49:24;;;;;;;11.90;4.25;;;19.20;77.00;;;;;;5044174;28;20029;-63
2022/06/01 00:51:49;;;;;;;10.23;3.75;;;19.10;77.10;;;;;;5028095;28;20469;-62
2022/06/01 00:54:15;;;;;;;8.13;3.83;;;19.10;77.00;;;;;;5026386;28;20025;-62
2022/06/01 00:56:49;;;;;;;10.70;2.92;;;19.10;77.00;;;;;;5026485;28;21536;-62
2022/06/01 00:59:18;;;;;;;12.10;3.47;;;19.00;77.00;;;;;;5043953;28;20584;-63
2022/06/01 01:01:44;;;;;;;9.73;3.65;;;19.00;77.00;;;;;;5042051;28;20135;-63
2022/06/01 01:04:10;;;;;;;8.32;3.40;;;19.00;77.00;;;;;;5024928;28;20065;-63
2022/06/01 01:06:37;;;;;;;8.65;3.78;;;19.10;77.10;;;;;;5042937;28;20101;-63
2022/06/01 01:09:03;;;;;;;12.70;4.43;;;19.10;77.10;;;;;;5043252;28;20033;-63
2022/06/01 01:11:42;;;;;;;7.25;3.40;;;19.00;77.10;;;;;;5040845;28;20048;-63
2022/06/01 01:14:08;;;;;;;8.32;3.50;;;19.00;77.20;;;;;;5026071;28;20018;-63
2022/06/01 01:16:34;;;;;;;8.80;3.75;;;19.00;77.30;;;;;;5040080;28;20053;-62
2022/06/01 01:19:00;;;;;;;8.23;4.25;;;18.90;77.10;;;;;;5025010;28;20112;-63
2022/06/01 01:21:49;;;;;;;7.70;4.18;;;18.90;77.10;;;;;;5026915;28;20040;-62
2022/06/01 01:24:45;;;;;;;6.63;4.13;;;19.00;77.10;;;;;;5027023;28;20104;-62
2022/06/01 01:27:10;;;;;;;8.65;4.10;;;18.90;77.10;;;;;;5027924;28;20043;-63
2022/06/01 01:29:40;;;;;;;8.85;4.18;;;18.90;77.20;;;;;;5039481;28;20025;-62
2022/06/01 01:32:07;;;;;;;7.78;3.33;;;18.90;77.30;;;;;;5040396;28;20112;-63
2022/06/01 01:34:36;;;;;;;7.70;3.60;;;18.90;77.30;;;;;;5023516;28;20226;-63
2022/06/01 01:37:04;;;;;;;5.95;2.80;;;18.90;77.50;;;;;;5040556;28;20095;-63
2022/06/01 01:39:31;;;;;;;8.45;3.33;;;18.80;77.40;;;;;;5008990;28;20404;-63
2022/06/01 01:41:57;;;;;;;7.07;3.08;;;18.80;77.40;;;;;;5039729;28;20044;-62
2022/06/01 01:44:57;;;;;;;8.40;3.17;;;18.80;77.50;;;;;;5039221;28;20028;-63
2022/06/01 01:47:23;;;;;;;4.60;3.30;;;18.80;77.50;;;;;;5020100;28;20174;-63
2022/06/01 01:49:49;;;;;;;9.00;3.22;;;18.80;77.60;;;;;;5025132;28;20034;-63
2022/06/01 01:52:17;;;;;;;6.72;3.45;;;18.80;77.70;;;;;;5041116;28;20028;-63
2022/06/01 01:55:04;;;;;;;6.13;2.85;;;18.80;77.70;;;;;;5042495;28;20148;-63
2022/06/01 01:57:50;;;;;;;5.25;3.08;;;18.70;77.80;;;;;;5040213;28;20381;-63
2022/06/01 02:00:22;;;;;;;6.45;3.97;;;18.70;77.80;;;;;;5022064;28;20029;-63
2022/06/01 02:03:19;;;;;;;11.40;4.07;;;18.80;77.90;;;;;;5038564;28;20041;-62
2022/06/01 02:06:29;;;;;;;9.45;4.22;;;18.70;78.20;;;;;;5024244;28;20335;-63
2022/06/01 02:09:05;;;;;;;8.85;4.50;;;18.70;78.60;;;;;;5017164;28;20832;-63
2022/06/01 02:14:51;;;;;;;7.03;3.90;;;18.70;79.10;;;;;;5039298;28;20047;-63
2022/06/01 02:17:38;;;;;;;13.32;3.97;;;18.70;78.80;;;;;;5039559;28;20453;-63
2022/06/01 02:20:10;;;;;;;6.38;3.38;;;18.60;78.70;;;;;;5023091;28;20348;-63
2022/06/01 02:22:36;;;;;;;8.07;3.65;;;18.60;78.70;;;;;;5023980;28;20572;-63
2022/06/01 02:25:02;;;;;;;8.23;3.80;;;18.60;78.70;;;;;;5022357;28;20081;-63
2022/06/01 02:27:27;;;;;;;6.43;3.60;;;18.60;78.90;;;;;;5041475;28;20029;-63
2022/06/01 02:29:59;;;;;;;6.60;3.33;;;18.60;78.90;;;;;;5023601;28;20346;-63
2022/06/01 02:32:26;;;;;;;11.10;3.85;;;18.60;78.90;;;;;;5043280;28;20021;-62
2022/06/01 02:34:52;;;;;;;12.68;4.10;;;18.50;78.90;;;;;;5022629;28;20619;-62
2022/06/01 02:37:18;;;;;;;11.13;4.82;;;18.50;79.10;;;;;;5021882;28;20103;-63
2022/06/01 02:39:45;;;;;;;14.63;4.18;;;18.50;79.10;;;;;;5023429;28;20253;-63
2022/06/01 02:42:25;;;;;;;9.45;3.70;;;18.50;79.10;;;;;;5038712;28;20025;-62
2022/06/01 02:44:54;;;;;;;8.27;4.03;;;18.50;79.20;;;;;;5037963;28;20029;-63
2022/06/01 02:47:19;;;;;;;6.63;4.03;;;18.50;79.30;;;;;;5037001;28;20045;-63
2022/06/01 02:49:44;;;;;;;11.80;4.38;;;18.50;79.30;;;;;;5021086;28;20037;-63
2022/06/01 02:52:10;;;;;;;8.55;4.22;;;18.50;79.40;;;;;;5040933;28;20454;-63
2022/06/01 02:54:36;;;;;;;8.85;3.60;;;18.50;79.30;;;;;;5040515;28;20078;-63
2022/06/01 02:57:01;;;;;;;7.40;4.07;;;18.40;79.30;;;;;;5022607;28;20414;-63
2022/06/01 02:59:27;;;;;;;10.68;4.03;;;18.50;79.40;;;;;;5038153;28;20457;-63
2022/06/01 03:01:52;;;;;;;8.13;3.60;;;18.40;79.30;;;;;;5038215;28;20049;-63
2022/06/01 03:04:18;;;;;;;6.53;3.80;;;18.40;79.50;;;;;;5038761;28;20028;-63
2022/06/01 03:06:43;;;;;;;8.80;3.90;;;18.40;79.40;;;;;;5038964;28;20028;-63
2022/06/01 03:09:11;;;;;;;6.35;3.95;;;18.40;79.50;;;;;;5039831;28;20067;-63
2022/06/01 03:11:37;;;;;;;8.60;3.78;;;18.40;79.60;;;;;;5036335;28;20560;-63
2022/06/01 03:14:02;;;;;;;7.22;3.38;;;18.40;79.70;;;;;;5040824;28;20041;-63
2022/06/01 03:16:28;;;;;;;11.52;3.90;;;18.40;80.10;;;;;;5021710;28;20404;-63
2022/06/01 03:18:53;;;;;;;6.90;3.65;;;18.40;80.40;;;;;;5039489;28;20025;-63
2022/06/01 03:21:19;;;;;;;7.80;3.33;;;18.40;80.60;;;;;;5023185;28;20469;-63
2022/06/01 03:23:45;;;;;;;8.90;2.95;;;18.40;80.70;;;;;;5024637;28;20029;-63
2022/06/01 03:26:12;;;;;;;7.85;3.35;;;18.40;80.60;;;;;;5038031;28;20144;-62
2022/06/01 03:28:39;;;;;;;7.18;3.40;;;18.40;80.40;;;;;;5026342;28;20013;-63
2022/06/01 03:31:06;;;;;;;13.32;3.35;;;18.40;80.50;;;;;;5042305;28;20017;-63
2022/06/01 03:33:32;;;;;;;4.22;2.78;;;18.40;80.80;;;;;;5044514;28;20497;-62
2022/06/01 03:35:57;;;;;;;5.32;2.95;;;18.30;81.10;;;;;;5026863;28;20028;-63
2022/06/01 03:38:23;;;;;;;6.32;2.90;;;18.30;80.90;;;;;;5043351;28;20032;-63
2022/06/01 03:40:48;;;;;;;4.35;2.67;;;18.30;80.80;;;;;;5041295;28;21074;-63
2022/06/01 03:43:14;;;;;;;4.50;2.78;;;18.30;80.70;;;;;;5041897;28;20037;-63
2022/06/01 03:46:02;;;;;;;7.50;3.05;;;18.30;80.70;;;;;;5039269;28;20057;-63
2022/06/01 03:48:32;;;;;;;5.88;2.67;;;18.30;80.70;;;;;;5031123;28;20112;-63
2022/06/01 03:50:57;;;;;;;4.53;2.55;;;18.30;80.70;;;;;;5040842;28;20477;-62
2022/06/01 03:53:24;;;;;;;6.82;2.80;;;18.30;80.70;;;;;;5025348;28;20071;-63
2022/06/01 03:55:50;;;;;;;5.05;2.53;;;18.30;80.70;;;;;;5039838;28;20017;-63
2022/06/01 03:58:18;;;;;;;6.10;4.03;;;18.30;80.60;;;;;;5042855;28;20025;-63
2022/06/01 04:00:43;;;;;;;9.52;5.43;;;18.30;80.70;;;;;;5025749;28;20045;-63
2022/06/01 04:03:09;;;;;;;7.60;3.70;;;18.20;80.70;;;;;;5027424;28;20025;-63
2022/06/01 04:05:35;;;;;;;4.60;3.17;;;18.20;80.60;;;;;;5040100;28;20041;-62
2022/06/01 04:08:02;;;;;;;12.00;3.90;;;18.20;80.60;;;;;;5042498;28;20039;-63
2022/06/01 04:10:27;;;;;;;5.88;3.00;;;18.30;80.80;;;;;;5041579;28;20055;-63
2022/06/01 04:12:53;;;;;;;4.50;2.63;;;18.20;80.80;;;;;;5044686;28;20025;-63
2022/06/01 04:15:18;;;;;;;7.47;3.40;;;18.20;80.80;;;;;;5039586;28;20541;-63
2022/06/01 04:17:44;;;;;;;27.20;4.75;;;18.20;81.00;;;;;;5041228;28;20507;-63
2022/06/01 04:20:10;;;;;;;25.67;5.18;;;18.20;80.90;;;;;;5041436;28;20029;-63
2022/06/01 04:22:38;;;;;;;26.02;4.45;;;18.20;81.00;;;;;;5039955;28;20048;-63
2022/06/01 04:25:04;;;;;;;13.68;3.50;;;18.20;81.00;;;;;;5025317;28;20623;-63
2022/06/01 04:27:30;;;;;;;24.73;4.07;;;18.20;81.00;;;;;;5041653;28;20061;-63
2022/06/01 04:29:55;;;;;;;23.88;4.43;;;18.10;81.10;;;;;;5043353;28;20031;-63
2022/06/01 04:32:26;;;;;;;23.02;4.50;;;18.20;81.00;;;;;;5042905;28;20079;-63
2022/06/01 04:34:51;;;;;;;21.55;4.15;;;18.20;81.10;;;;;;5007965;28;20140;-63
2022/06/01 04:37:17;;;;;;;26.27;4.55;;;18.20;81.00;;;;;;5039716;28;20175;-63
2022/06/01 04:39:42;;;;;;;27.77;4.20;;;18.20;81.00;;;;;;5040805;28;20036;-63
2022/06/01 04:42:08;;;;;;;19.45;3.63;;;18.20;80.90;;;;;;5042944;28;20519;-63
2022/06/01 04:44:34;;;;;;;10.82;3.50;;;18.20;81.70;;;;;;5038125;28;20419;-63
2022/06/01 04:46:59;;;;;;;16.42;4.07;;;18.20;81.30;;;;;;5034531;28;20351;-63
2022/06/01 04:49:25;;;;;;;20.75;3.80;;;18.20;81.20;;;;;;5040899;28;20037;-63
2022/06/01 04:51:50;;;;;;;14.95;4.05;;;18.20;81.40;;;;;;5040683;28;20119;-63
2022/06/01 04:54:16;;;;;;;15.05;3.67;;;18.20;81.30;;;;;;5038370;28;20028;-63
2022/06/01 04:56:41;;;;;;;17.33;3.70;;;18.20;81.20;;;;;;5040756;28;20461;-63
2022/06/01 04:59:07;;;;;;;11.23;3.33;;;18.20;81.30;;;;;;5038031;28;20040;-63
2022/06/01 05:01:32;;;;;;;18.95;3.72;;;18.20;81.40;;;;;;5040905;28;20038;-63
2022/06/01 05:03:58;;;;;;;13.88;3.55;;;18.20;82.00;;;;;;5041338;28;20534;-63
2022/06/01 05:06:24;;;;;;;17.38;3.60;;;18.20;81.30;;;;;;5036178;28;20459;-64
2022/06/01 05:08:50;;;;;;;10.95;3.70;;;18.20;81.30;;;;;;5033263;28;20029;-63
2022/06/01 05:11:16;;;;;;;11.57;3.13;;;18.20;81.30;;;;;;5038693;28;20028;-63
2022/06/01 05:13:41;;;;;;;19.25;3.85;;;18.20;81.30;;;;;;5041103;28;20040;-63
2022/06/01 05:16:07;;;;;;;15.15;2.70;;;18.20;81.30;;;;;;5038054;28;20030;-65
2022/06/01 05:18:33;;;;;;;14.18;3.55;;;18.20;81.20;;;;;;5017729;28;20085;-63
2022/06/01 05:20:59;;;;;;;8.30;3.10;;;18.20;81.10;;;;;;5021210;28;20427;-63
2022/06/01 05:23:24;;;;;;;13.68;3.35;;;18.20;81.30;;;;;;5038315;28;20120;-63
2022/06/01 05:25:51;;;;;;;11.07;3.20;;;18.20;81.30;;;;;;5022769;28;20041;-62
2022/06/01 05:28:21;;;;;;;15.15;3.85;;;18.20;81.40;;;;;;5024238;28;20043;-63
2022/06/01 05:30:47;;;;;;;10.45;3.10;;;18.20;81.30;;;;;;5037590;28;20036;-63
2022/06/01 05:33:12;;;;;;;14.13;3.72;;;18.20;81.30;;;;;;5025404;28;20037;-63
2022/06/01 05:35:38;;;;;;;8.68;3.13;;;18.20;81.40;;;;;;5039357;28;20302;-63
2022/06/01 05:38:03;;;;;;;10.95;3.00;;;18.20;81.50;;;;;;5040350;28;20037;-62
2022/06/01 05:40:30;;;;;;;17.65;3.22;;;18.20;81.30;;;;;;5038045;28;20087;-63
2022/06/01 05:42:57;;;;;;;14.05;2.97;;;18.20;81.40;;;;;;5039304;28;20029;-63
2022/06/01 05:45:22;;;;;;;8.85;3.67;;;18.20;81.50;;;;;;5038098;28;20028;-63
2022/06/01 05:47:48;;;;;;;17.67;2.88;;;18.20;81.50;;;;;;5003703;28;20028;-63
2022/06/01 05:50:13;;;;;;;11.63;3.30;;;18.20;81.50;;;;;;5033186;28;20029;-63
2022/06/01 05:52:39;;;;;;;8.23;3.15;;;18.20;81.40;;;;;;5034685;28;20390;-63
2022/06/01 05:55:07;;;;;;;9.02;3.20;;;18.20;81.30;;;;;;5038276;28;20074;-63
2022/06/01 05:57:33;;;;;;;10.40;3.45;;;18.20;81.40;;;;;;5005875;28;20119;-63
2022/06/01 05:59:58;;;;;;;14.02;3.38;;;18.30;81.60;;;;;;5007344;28;20469;-63
2022/06/01 06:02:24;;;;;;;5.80;3.10;;;18.20;81.50;;;;;;5039250;28;20029;-62
2022/06/01 06:04:49;;;;;;;8.45;2.90;;;18.20;82.00;;;;;;5001546;28;20466;-63
2022/06/01 06:07:15;;;;;;;6.20;2.85;;;18.30;82.50;;;;;;5033917;28;20155;-63
2022/06/01 06:09:40;;;;;;;7.47;2.58;;;18.20;82.80;;;;;;5036826;28;20087;-63
2022/06/01 06:12:06;;;;;;;11.20;2.85;;;18.20;85.10;;;;;;5024346;28;20040;-62
2022/06/01 06:14:32;;;;;;;10.48;2.90;;;18.10;86.80;;;;;;5039125;28;20032;-63
2022/06/01 06:16:57;;;;;;;7.53;2.30;;;18.10;87.70;;;;;;5030696;28;20877;-62
2022/06/01 06:19:23;;;;;;;6.28;2.67;;;18.00;88.20;;;;;;5040665;28;20457;-63
2022/06/01 06:21:49;;;;;;;10.80;2.50;;;18.00;89.00;;;;;;5034469;28;20037;-63
2022/06/01 06:24:16;;;;;;;10.98;2.20;;;18.00;89.80;;;;;;5039176;28;20059;-63
2022/06/01 06:26:42;;;;;;;7.97;1.88;;;18.00;90.30;;;;;;5038591;28;20032;-63
2022/06/01 06:29:08;;;;;;;4.15;2.15;;;17.90;90.30;;;;;;5037131;28;20037;-62
2022/06/01 06:31:34;;;;;;;6.68;1.83;;;18.00;90.50;;;;;;5022951;28;20612;-63
2022/06/01 06:34:00;;;;;;;5.95;1.92;;;18.00;90.70;;;;;;5034609;28;20102;-63
2022/06/01 06:36:25;;;;;;;4.45;2.15;;;18.00;90.90;;;;;;5037938;28;20116;-63
2022/06/01 06:38:51;;;;;;;10.50;2.50;;;17.90;91.10;;;;;;5020957;28;20128;-63
2022/06/01 06:41:18;;;;;;;29.17;2.13;;;17.90;91.20;;;;;;5040312;28;20059;-63
2022/06/01 06:43:43;;;;;;;6.05;2.40;;;18.00;91.40;;;;;;5035494;28;20021;-63
2022/06/01 06:46:16;;;;;;;9.90;2.10;;;18.00;91.60;;;;;;5038161;28;20028;-62
2022/06/01 06:48:43;;;;;;;6.47;2.17;;;18.00;91.60;;;;;;5034403;28;20485;-63
2022/06/01 06:51:09;;;;;;;4.13;1.90;;;18.00;91.50;;;;;;5033506;28;20132;-63
2022/06/01 06:53:35;;;;;;;9.05;2.15;;;18.00;91.30;;;;;;5035076;28;20064;-63
2022/06/01 06:56:04;;;;;;;448.05;44.67;;;18.10;91.60;;;;;;5003727;28;20124;-66
2022/06/01 06:58:29;;;;;;;54.28;5.95;;;18.20;91.80;;;;;;5020306;28;20021;-64
2022/06/01 07:00:55;;;;;;;18.17;3.22;;;18.20;91.80;;;;;;5014459;28;20040;-63
2022/06/01 07:03:20;;;;;;;9.20;2.53;;;18.20;91.70;;;;;;5033929;28;20037;-64
2022/06/01 07:08:30;;;;;;;34.08;4.30;;;18.20;91.70;;;;;;5024855;28;20349;-63
2022/06/01 07:10:56;;;;;;;26.33;4.15;;;18.20;91.70;;;;;;5037061;28;20352;-63
2022/06/01 07:13:21;;;;;;;40.75;3.92;;;18.20;91.70;;;;;;5019751;28;20134;-63
2022/06/01 07:15:47;;;;;;;40.40;5.13;;;18.30;91.70;;;;;;5019953;28;20048;-63
2022/06/01 07:18:13;;;;;;;24.52;3.72;;;18.20;91.50;;;;;;5018941;28;20064;-63
2022/06/01 07:20:39;;;;;;;18.63;3.58;;;18.30;91.70;;;;;;5036030;28;20072;-63
2022/06/01 07:23:05;;;;;;;29.02;3.53;;;18.30;91.20;;;;;;5033713;28;20416;-63
2022/06/01 07:25:30;;;;;;;17.90;3.33;;;18.40;91.10;;;;;;5020093;28;20095;-63
2022/06/01 07:27:57;;;;;;;34.15;4.93;;;18.40;90.80;;;;;;5036605;28;20485;-63
2022/06/01 07:30:23;;;;;;;33.47;5.35;;;18.40;90.50;;;;;;5038759;28;20095;-63
2022/06/01 07:32:48;;;;;;;53.45;6.97;;;18.40;90.20;;;;;;5010327;28;20065;-63
2022/06/01 07:35:14;;;;;;;55.10;7.13;;;18.40;89.90;;;;;;5018954;28;20057;-63
2022/06/01 07:43:10;;;;;;;55.33;6.70;;;18.60;88.20;;;;;;5031175;28;20039;-63
2022/06/01 07:45:40;;;;;;;41.10;5.75;;;18.70;87.60;;;;;;5014266;28;20033;-63
2022/06/01 07:48:08;;;;;;;32.85;4.90;;;18.70;87.40;;;;;;5016617;28;20912;-63
2022/06/01 07:50:34;;;;;;;39.40;5.13;;;18.80;87.00;;;;;;5018030;28;20052;-63
2022/06/01 07:53:00;;;;;;;29.55;3.47;;;18.80;86.60;;;;;;5017647;28;20033;-63
2022/06/01 07:55:25;;;;;;;49.65;5.15;;;18.80;86.40;;;;;;5017254;28;20045;-63
2022/06/01 07:57:51;;;;;;;40.15;4.88;;;18.90;86.20;;;;;;5034218;28;20044;-63
2022/06/01 08:00:17;;;;;;;118.18;12.57;;;18.90;86.00;;;;;;5032687;28;20033;-62
2022/06/01 08:02:43;;;;;;;41.65;5.20;;;18.90;85.70;;;;;;5023255;28;20033;-63
2022/06/01 08:05:09;;;;;;;42.47;5.32;;;19.00;85.50;;;;;;5030327;28;20037;-63
2022/06/01 08:07:34;;;;;;;76.47;7.38;;;19.00;85.10;;;;;;5018887;28;20065;-62
2022/06/01 08:10:00;;;;;;;66.13;6.00;;;19.00;84.80;;;;;;5026473;28;20132;-63
2022/06/01 08:15:10;;;;;;;26.48;3.92;;;19.20;84.50;;;;;;5036877;28;20619;-62
2022/06/01 08:17:36;;;;;;;22.17;4.95;;;19.10;84.30;;;;;;5038685;28;20120;-62
2022/06/01 08:20:01;;;;;;;37.20;4.35;;;19.20;84.00;;;;;;5031824;28;20357;-62
2022/06/01 08:22:27;;;;;;;31.30;4.30;;;19.30;83.90;;;;;;5008787;28;20346;-62
2022/06/01 08:24:52;;;;;;;33.75;4.68;;;19.30;83.80;;;;;;5029924;28;20033;-62
2022/06/01 08:27:18;;;;;;;28.17;4.38;;;19.30;83.50;;;;;;5031090;28;20043;-63
2022/06/01 08:29:43;;;;;;;22.77;3.45;;;19.40;83.30;;;;;;5020318;28;20069;-62
2022/06/01 08:32:09;;;;;;;19.65;3.17;;;19.40;83.20;;;;;;4999358;28;20147;-63
2022/06/01 08:34:38;;;;;;;28.10;3.70;;;19.40;83.10;;;;;;5041298;28;20074;-63
2022/06/01 08:37:04;;;;;;;24.88;4.05;;;19.40;82.90;;;;;;5037011;28;20051;-63
2022/06/01 08:39:29;;;;;;;56.58;5.65;;;19.50;82.80;;;;;;5022635;28;20540;-63
2022/06/01 08:41:55;;;;;;;116.60;12.80;;;19.50;82.70;;;;;;5036010;28;20045;-63
2022/06/01 08:44:31;;;;;;;53.60;6.53;;;19.60;82.80;;;;;;5022019;28;20033;-62
2022/06/01 08:47:01;;;;;;;28.08;4.93;;;19.60;82.70;;;;;;5014094;28;20029;-62
2022/06/01 08:49:33;;;;;;;35.42;4.28;;;19.70;82.50;;;;;;5015747;28;20029;-62
2022/06/01 08:51:58;;;;;;;37.22;4.82;;;19.70;82.20;;;;;;5001394;28;20114;-63
2022/06/01 08:54:24;;;;;;;27.85;4.78;;;19.80;82.20;;;;;;5024549;28;20124;-63
2022/06/01 08:56:59;;;;;;;23.20;4.30;;;19.80;82.10;;;;;;5030283;28;20025;-63
2022/06/01 08:59:46;;;;;;;26.00;4.60;;;19.80;82.40;;;;;;5001465;28;20102;-63
2022/06/01 09:02:20;;;;;;;31.70;3.78;;;19.90;82.10;;;;;;5034415;28;20143;-62
2022/06/01 09:04:59;;;;;;;44.10;5.45;;;19.90;82.00;;;;;;5036282;28;20091;-63
2022/06/01 09:07:41;;;;;;;56.60;5.78;;;19.90;82.10;;;;;;5013295;28;20038;-63
2022/06/01 09:10:28;;;;;;;65.50;8.82;;;19.90;81.80;;;;;;5013473;28;20543;-63
2022/06/01 09:13:00;;;;;;;55.05;8.07;;;19.90;81.50;;;;;;5031414;28;20052;-63
2022/06/01 09:15:26;;;;;;;72.30;8.63;;;20.00;81.40;;;;;;5018167;28;20098;-62
2022/06/01 09:17:54;;;;;;;50.08;6.38;;;20.00;81.50;;;;;;5020608;28;20025;-62
2022/06/01 09:23:08;;;;;;;75.93;7.30;;;20.10;80.90;;;;;;5034507;28;20126;-62
2022/06/01 09:25:37;;;;;;;40.75;5.53;;;20.20;80.70;;;;;;5008458;28;20034;-62
2022/06/01 09:28:19;;;;;;;150.13;15.88;;;20.30;79.70;;;;;;5007551;28;20048;-63
2022/06/01 09:30:45;;;;;;;66.97;8.35;;;20.30;79.50;;;;;;5006653;28;20531;-64
2022/06/01 09:33:20;;;;;;;61.60;6.75;;;20.40;79.20;;;;;;4998545;28;20044;-63
2022/06/01 09:35:56;;;;;;;60.60;7.55;;;20.40;78.60;;;;;;5025806;28;20610;-63
2022/06/01 09:38:48;;;;;;;40.35;5.85;;;20.50;78.20;;;;;;5018481;28;20257;-63
2022/06/01 09:41:21;;;;;;;46.33;5.93;;;20.50;77.60;;;;;;5029967;28;20128;-63
2022/06/01 09:43:54;;;;;;;47.05;6.30;;;20.60;76.70;;;;;;5031634;28;20154;-64
2022/06/01 09:46:33;;;;;;;41.63;5.93;;;20.60;75.90;;;;;;5027313;28;20033;-63
2022/06/01 09:48:58;;;;;;;48.25;6.38;;;20.70;74.70;;;;;;5022571;28;20126;-63
2022/06/01 09:51:25;;;;;;;67.05;7.30;;;20.70;74.00;;;;;;5007145;28;20056;-63
2022/06/01 09:54:09;;;;;;;57.17;8.15;;;20.80;73.40;;;;;;5031040;28;20033;-63
2022/06/01 09:56:46;;;;;;;72.35;11.38;;;20.90;72.90;;;;;;5033430;28;20060;-63
2022/06/01 10:08:04;;;;;;;25.48;4.47;;;21.00;70.90;;;;;;5015635;28;20492;-63
2022/06/01 10:10:30;;;;;;;27.33;4.28;;;21.00;71.10;;;;;;5018371;28;20036;-62
2022/06/01 10:12:58;;;;;;;23.65;4.30;;;21.10;71.20;;;;;;5036623;28;20041;-64
2022/06/01 10:15:34;;;;;;;24.42;3.38;;;21.10;71.40;;;;;;5026902;28;20052;-63
2022/06/01 10:18:07;;;;;;;20.92;3.78;;;21.10;71.10;;;;;;5034207;28;20039;-64
2022/06/01 10:20:39;;;;;;;10.73;2.78;;;21.10;70.90;;;;;;4995270;28;20049;-63
2022/06/01 10:23:10;;;;;;;24.48;3.72;;;21.10;70.40;;;;;;5014518;28;20098;-63
2022/06/01 10:25:49;;;;;;;50.67;6.00;;;21.20;70.40;;;;;;5008354;28;20049;-63
2022/06/01 10:28:18;;;;;;;57.80;6.43;;;21.20;70.30;;;;;;5032693;28;20124;-63
2022/06/01 10:30:51;;;;;;;50.25;5.82;;;21.20;70.00;;;;;;5016032;28;20276;-63
2022/06/01 10:33:28;;;;;;;63.53;5.95;;;21.20;69.60;;;;;;5033431;28;20021;-63
2022/06/01 10:36:04;;;;;;;26.65;4.63;;;21.30;69.00;;;;;;4998761;28;20033;-63
2022/06/01 10:38:41;;;;;;;55.35;6.05;;;21.30;67.90;;;;;;5013928;28;20437;-63
2022/06/01 10:41:07;;;;;;;73.07;7.63;;;21.30;68.10;;;;;;5026732;28;20033;-63
2022/06/01 10:44:02;;;;;;;30.75;4.97;;;21.30;68.00;;;;;;5027632;28;20025;-62
2022/06/01 10:46:39;;;;;;;45.45;5.78;;;21.40;67.70;;;;;;5010331;28;21261;-62
2022/06/01 10:49:16;;;;;;;38.45;4.97;;;21.40;67.50;;;;;;5027106;28;20098;-63
2022/06/01 10:51:41;;;;;;;37.25;5.55;;;21.40;67.80;;;;;;5013852;28;20041;-62
2022/06/01 10:54:21;;;;;;;66.47;8.32;;;21.40;68.00;;;;;;5030929;28;20393;-63
2022/06/01 10:56:47;;;;;;;48.15;6.40;;;21.50;68.20;;;;;;5015274;28;20047;-62
2022/06/01 10:59:15;;;;;;;49.15;5.78;;;21.50;68.10;;;;;;5026418;28;20029;-64
2022/06/01 11:02:03;;;;;;;40.95;6.32;;;21.50;68.20;;;;;;5021833;28;20395;-63
2022/06/01 11:04:37;;;;;;;49.65;6.28;;;21.60;68.50;;;;;;5007845;28;20098;-61
2022/06/01 11:07:41;;;;;;;45.10;6.43;;;21.50;68.80;;;;;;5029969;28;20086;-62
2022/06/01 11:10:19;;;;;;;38.17;6.05;;;21.60;69.20;;;;;;5024366;28;20072;-64
2022/06/01 11:12:59;;;;;;;56.70;7.43;;;21.70;69.40;;;;;;5026637;28;20087;-62
2022/06/01 11:15:36;;;;;;;57.47;7.45;;;21.70;69.30;;;;;;5023590;28;20073;-66
2022/06/01 11:18:07;;;;;;;62.53;7.68;;;21.70;69.50;;;;;;5026082;28;20065;-62
2022/06/01 11:21:26;;;;;;;59.00;7.63;;;21.80;69.70;;;;;;5016235;28;20039;-62
2022/06/01 11:23:51;;;;;;;56.28;6.53;;;21.80;69.70;;;;;;5010165;28;20384;-62
2022/06/01 11:26:31;;;;;;;39.10;5.35;;;21.90;69.60;;;;;;5016181;28;20020;-62
2022/06/01 11:29:11;;;;;;;29.13;5.25;;;21.90;69.30;;;;;;5009410;28;20721;-63
2022/06/01 11:31:37;;;;;;;48.33;5.60;;;21.90;69.50;;;;;;5015359;28;20033;-62
2022/06/01 11:34:14;;;;;;;42.13;5.75;;;21.90;69.20;;;;;;5012529;28;20064;-62
2022/06/01 11:37:00;;;;;;;39.28;5.85;;;21.90;69.10;;;;;;5004549;28;20641;-62
2022/06/01 11:39:32;;;;;;;42.78;4.95;;;21.90;68.80;;;;;;5014582;28;20041;-62
2022/06/01 11:42:05;;;;;;;34.45;5.90;;;21.90;68.70;;;;;;5004920;28;20048;-63
2022/06/01 11:44:35;;;;;;;56.47;6.32;;;21.90;68.70;;;;;;5004661;28;20033;-62
2022/06/01 11:47:09;;;;;;;205.80;21.05;;;21.90;68.40;;;;;;5021674;28;20528;-62
2022/06/01 11:49:34;;;;;;;48.47;7.78;;;21.90;68.60;;;;;;5016283;28;20029;-62
2022/06/01 11:52:22;;;;;;;45.92;4.68;;;21.90;68.70;;;;;;5019545;28;20045;-62
2022/06/01 11:55:11;;;;;;;46.17;5.95;;;21.90;68.70;;;;;;5020662;28;20030;-62
2022/06/01 11:57:45;;;;;;;53.05;6.07;;;22.00;68.80;;;;;;5024729;28;20492;-62
2022/06/01 12:00:21;;;;;;;45.00;7.82;;;22.00;69.10;;;;;;5024020;28;20029;-62
2022/06/01 12:02:50;;;;;;;56.15;6.95;;;22.00;69.20;;;;;;5019415;28;20485;-62
2022/06/01 12:05:28;;;;;;;40.92;6.30;;;22.00;69.30;;;;;;5011114;28;20121;-62
2022/06/01 12:07:55;;;;;;;61.53;6.18;;;22.10;69.30;;;;;;5017848;28;20111;-62
2022/06/01 12:10:32;;;;;;;31.65;5.68;;;22.10;69.40;;;;;;5019500;28;20080;-62
2022/06/01 12:13:01;;;;;;;28.27;5.30;;;22.10;70.20;;;;;;4995360;28;20063;-62
2022/06/01 12:15:54;;;;;;;31.73;5.13;;;22.10;69.60;;;;;;5014822;28;20033;-63
2022/06/01 12:18:22;;;;;;;34.00;5.68;;;22.10;69.80;;;;;;5001260;28;20049;-62
2022/06/01 12:20:52;;;;;;;46.05;6.65;;;22.10;70.10;;;;;;5006803;28;20043;-62
2022/06/01 12:29:04;;;;;;;39.42;5.72;;;22.20;70.30;;;;;;5016718;28;20047;-62
2022/06/01 12:31:35;;;;;;;30.75;5.45;;;22.10;70.50;;;;;;5009012;28;20045;-62
2022/06/01 12:34:03;;;;;;;49.50;6.85;;;22.10;71.10;;;;;;5006509;28;20082;-62
2022/06/01 12:36:53;;;;;;;40.10;6.95;;;22.10;71.70;;;;;;5026418;28;20052;-64
2022/06/01 12:39:20;;;;;;;54.75;7.40;;;22.10;71.80;;;;;;5032947;28;20040;-62
2022/06/01 12:41:48;;;;;;;34.78;5.95;;;22.10;72.20;;;;;;5028192;28;20048;-62
2022/06/01 12:44:14;;;;;;;34.90;6.20;;;22.10;72.40;;;;;;5028602;28;20067;-63
2022/06/01 12:46:41;;;;;;;34.28;5.65;;;22.10;72.40;;;;;;5007634;28;20032;-63
2022/06/01 12:49:33;;;;;;;45.95;6.50;;;22.00;72.10;;;;;;5025382;28;20440;-62
2022/06/01 12:52:09;;;;;;;42.47;6.38;;;22.10;72.40;;;;;;5022813;28;20025;-62
2022/06/01 12:54:36;;;;;;;27.52;5.13;;;22.00;72.50;;;;;;5016345;28;20431;-62
2022/06/01 12:57:04;;;;;;;43.72;6.22;;;22.00;72.50;;;;;;5029824;28;20041;-61
2022/06/01 12:59:31;;;;;;;22.80;5.00;;;22.00;72.70;;;;;;5013918;28;20355;-61
2022/06/01 13:02:00;;;;;;;45.47;6.78;;;22.00;72.70;;;;;;5018735;28;20029;-61
2022/06/01 13:04:25;;;;;;;60.50;6.70;;;22.00;73.00;;;;;;5027340;28;20033;-61
2022/06/01 13:06:51;;;;;;;48.90;6.03;;;22.00;73.10;;;;;;5016654;28;20091;-61
2022/06/01 13:09:22;;;;;;;41.42;6.35;;;22.00;73.30;;;;;;5024314;28;20695;-61
2022/06/01 13:12:03;;;;;;;43.08;7.43;;;21.90;73.20;;;;;;5013153;28;20029;-61
2022/06/01 13:14:30;;;;;;;43.30;6.55;;;21.90;73.50;;;;;;5024916;28;20116;-62
2022/06/01 13:16:59;;;;;;;43.85;6.07;;;21.80;73.60;;;;;;5021379;28;20567;-61
2022/06/01 13:19:29;;;;;;;34.28;5.80;;;21.80;73.80;;;;;;5030268;28;20125;-61
2022/06/01 13:22:14;;;;;;;39.95;6.60;;;21.80;73.80;;;;;;5024817;28;20103;-63
2022/06/01 13:24:48;;;;;;;44.03;6.55;;;21.80;74.00;;;;;;5016827;28;20503;-61